Airfield :







YOU CAN JOIN US ON...

 
LOGIN :

Register | Disclaimer

   EN    FR    IT 

 









Legend :    VFR   Marginal VFR   IFR   Intensive IFR   Very Intensive IFR
Visi :
Ceiling :
>= 8 km
>= 3000ft
5 to 8 km
1000 to 3000 ft
1500m to 5 km
500 to 1000 ft
800 to 1500m
200 to 500 ft
< 800m
< 200 ft
Symbols :   Thunderstorms  Fog  Heavy snow  Heavy precipitations  Wind > 20 kt






- Airport Elevation : 9 ft
- IATA code : SJU


TJSJ - Luis Munoz Marin Int.

CURRENT METAR :
  • 300556Z 06009KT 10SM SCT027 25/20 A3006 RMK AO2 SLP177 60000 T02500200 10256 20250 58019

EXPIRED METARs :
  • 300456Z 06012KT 10SM SCT026 25/20 A3008 RMK AO2 SLP184 T02500200
  • 300356Z 07008KT 10SM SCT026 25/20 A3010 RMK AO2 SLP191 T02500200 402890239

TAF TJSJ
Valid from the 30 at 06:00 until the 31 at 06:00 UTC


300539Z 3006/3106 07012KT P6SM FEW030
FM301600 07015G24KT P6SM VCSH FEW026 SCT035
FM302000 07013KT P6SM FEW026 FEW035



MET'MAP, your aeronautical weather chart ! - Copyright ORBIFLY December 2007 - Disclaimer

ORBIFLY MET'MAP TEAM :

Programming & Development : Alexandra Zaïnal
Concept & original design : Baudouin d'Aumeries
Assistance for programming : Marc-Olivier Méhu
Technical & hardware support : Manuel Goepfert

Contact : metmap@orbifly.com




SOURCES & CREDITS :

   NOAA